sensor_id;sensor_type;location;lat;lon;timestamp;pressure;altitude;pressure_sealevel;temperature;humidity
66479;BME280;53294;47.912;13.526;2023-02-18T00:01:21;96920.13;;;12.28;59.96
66479;BME280;53294;47.912;13.526;2023-02-18T00:03:49;96919.06;;;12.24;60.14
66479;BME280;53294;47.912;13.526;2023-02-18T00:06:18;96916.16;;;12.20;60.15
66479;BME280;53294;47.912;13.526;2023-02-18T00:08:46;96916.91;;;12.26;60.10
66479;BME280;53294;47.912;13.526;2023-02-18T00:11:14;96917.25;;;12.19;60.36
66479;BME280;53294;47.912;13.526;2023-02-18T00:13:41;96932.84;;;12.23;60.53
66479;BME280;53294;47.912;13.526;2023-02-18T00:16:10;96926.19;;;12.15;60.67
66479;BME280;53294;47.912;13.526;2023-02-18T00:18:38;96925.19;;;12.11;61.18
66479;BME280;53294;47.912;13.526;2023-02-18T00:21:06;96917.38;;;12.09;61.21
66479;BME280;53294;47.912;13.526;2023-02-18T00:23:33;96920.06;;;12.09;61.37
66479;BME280;53294;47.912;13.526;2023-02-18T00:26:19;96913.38;;;12.07;61.43
66479;BME280;53294;47.912;13.526;2023-02-18T00:28:46;96924.72;;;12.03;61.91
66479;BME280;53294;47.912;13.526;2023-02-18T00:31:20;96912.72;;;12.15;61.54
66479;BME280;53294;47.912;13.526;2023-02-18T00:33:47;96907.41;;;12.10;61.76
66479;BME280;53294;47.912;13.526;2023-02-18T00:36:17;96916.09;;;12.26;61.39
66479;BME280;53294;47.912;13.526;2023-02-18T00:38:48;96918.47;;;12.32;61.10
66479;BME280;53294;47.912;13.526;2023-02-18T00:41:15;96916.09;;;12.26;61.24
66479;BME280;53294;47.912;13.526;2023-02-18T00:43:42;96914.81;;;12.23;61.42
66479;BME280;53294;47.912;13.526;2023-02-18T00:46:09;96909.03;;;12.11;61.84
66479;BME280;53294;47.912;13.526;2023-02-18T00:48:36;96907.97;;;12.07;61.99
66479;BME280;53294;47.912;13.526;2023-02-18T00:51:04;96912.09;;;11.99;62.11
66479;BME280;53294;47.912;13.526;2023-02-18T00:53:31;96910.16;;;12.05;62.10
66479;BME280;53294;47.912;13.526;2023-02-18T00:55:58;96912.78;;;12.10;61.86
66479;BME280;53294;47.912;13.526;2023-02-18T00:58:25;96909.59;;;12.08;61.78
66479;BME280;53294;47.912;13.526;2023-02-18T01:00:53;96914.50;;;12.00;62.19
66479;BME280;53294;47.912;13.526;2023-02-18T01:03:19;96901.13;;;11.95;61.98
66479;BME280;53294;47.912;13.526;2023-02-18T01:05:48;96904.78;;;12.05;61.63
66479;BME280;53294;47.912;13.526;2023-02-18T01:08:17;96905.16;;;11.93;61.91
66479;BME280;53294;47.912;13.526;2023-02-18T01:10:46;96890.81;;;12.02;61.41
66479;BME280;53294;47.912;13.526;2023-02-18T01:13:14;96887.59;;;12.00;61.51
66479;BME280;53294;47.912;13.526;2023-02-18T01:15:42;96889.28;;;11.91;61.98
66479;BME280;53294;47.912;13.526;2023-02-18T01:18:09;96885.94;;;11.75;62.10
66479;BME280;53294;47.912;13.526;2023-02-18T01:20:37;96894.88;;;11.71;62.54
66479;BME280;53294;47.912;13.526;2023-02-18T01:23:04;96895.56;;;11.81;62.11
66479;BME280;53294;47.912;13.526;2023-02-18T01:25:32;96881.84;;;11.83;61.76
66479;BME280;53294;47.912;13.526;2023-02-18T01:27:58;96883.94;;;11.86;61.50
66479;BME280;53294;47.912;13.526;2023-02-18T01:30:25;96885.94;;;11.75;61.96
66479;BME280;53294;47.912;13.526;2023-02-18T01:32:52;96895.00;;;11.84;61.48
66479;BME280;53294;47.912;13.526;2023-02-18T01:35:19;96878.38;;;11.77;61.67
66479;BME280;53294;47.912;13.526;2023-02-18T01:37:46;96887.78;;;11.80;61.77
66479;BME280;53294;47.912;13.526;2023-02-18T01:40:15;96886.19;;;11.79;61.86
66479;BME280;53294;47.912;13.526;2023-02-18T01:42:42;96889.84;;;11.88;61.66
66479;BME280;53294;47.912;13.526;2023-02-18T01:48:12;96875.59;;;11.88;61.77
66479;BME280;53294;47.912;13.526;2023-02-18T01:50:47;96877.47;;;11.92;61.39
66479;BME280;53294;47.912;13.526;2023-02-18T01:53:18;96889.78;;;11.98;61.33
66479;BME280;53294;47.912;13.526;2023-02-18T01:55:47;96883.25;;;12.05;61.18
66479;BME280;53294;47.912;13.526;2023-02-18T01:58:14;96876.03;;;12.00;61.51
66479;BME280;53294;47.912;13.526;2023-02-18T02:00:41;96880.03;;;12.02;61.28
66479;BME280;53294;47.912;13.526;2023-02-18T02:03:08;96875.09;;;12.10;61.18
66479;BME280;53294;47.912;13.526;2023-02-18T02:05:35;96882.09;;;12.11;61.41
66479;BME280;53294;47.912;13.526;2023-02-18T02:08:02;96874.88;;;12.06;61.37
66479;BME280;53294;47.912;13.526;2023-02-18T02:13:15;96864.00;;;11.92;61.97
66479;BME280;53294;47.912;13.526;2023-02-18T02:16:03;96870.44;;;11.91;62.15
66479;BME280;53294;47.912;13.526;2023-02-18T02:24:52;96859.72;;;11.86;62.51
66479;BME280;53294;47.912;13.526;2023-02-18T02:27:25;96851.03;;;11.94;62.02
66479;BME280;53294;47.912;13.526;2023-02-18T02:30:32;96849.47;;;11.93;62.17
66479;BME280;53294;47.912;13.526;2023-02-18T02:36:12;96850.09;;;11.80;62.63
66479;BME280;53294;47.912;13.526;2023-02-18T02:38:52;96843.47;;;11.72;62.67
66479;BME280;53294;47.912;13.526;2023-02-18T02:41:42;96831.09;;;11.71;62.63
66479;BME280;53294;47.912;13.526;2023-02-18T02:46:59;96839.41;;;11.75;62.84
66479;BME280;53294;47.912;13.526;2023-02-18T02:49:55;96838.25;;;11.81;62.70
66479;BME280;53294;47.912;13.526;2023-02-18T02:52:32;96836.59;;;11.85;62.70
66479;BME280;53294;47.912;13.526;2023-02-18T02:55:04;96841.56;;;11.73;63.09
66479;BME280;53294;47.912;13.526;2023-02-18T03:00:00;96838.78;;;11.83;62.81
66479;BME280;53294;47.912;13.526;2023-02-18T03:05:23;96831.19;;;11.85;62.70
66479;BME280;53294;47.912;13.526;2023-02-18T03:08:18;96839.22;;;11.90;62.56
66479;BME280;53294;47.912;13.526;2023-02-18T03:18:58;96826.31;;;11.92;62.63
66479;BME280;53294;47.912;13.526;2023-02-18T03:21:43;96839.91;;;11.77;63.29
66479;BME280;53294;47.912;13.526;2023-02-18T03:26:44;96837.63;;;11.89;62.84
66479;BME280;53294;47.912;13.526;2023-02-18T03:29:14;96834.38;;;11.92;62.89
66479;BME280;53294;47.912;13.526;2023-02-18T03:31:45;96835.94;;;11.98;62.73
66479;BME280;53294;47.912;13.526;2023-02-18T03:34:16;96820.34;;;11.95;62.76
66479;BME280;53294;47.912;13.526;2023-02-18T03:36:44;96837.13;;;11.87;63.11
66479;BME280;53294;47.912;13.526;2023-02-18T03:39:14;96832.16;;;11.99;62.68
66479;BME280;53294;47.912;13.526;2023-02-18T03:41:42;96830.06;;;11.91;62.87
66479;BME280;53294;47.912;13.526;2023-02-18T03:44:10;96826.84;;;11.89;63.14
66479;BME280;53294;47.912;13.526;2023-02-18T03:46:39;96828.34;;;11.76;63.13
66479;BME280;53294;47.912;13.526;2023-02-18T03:49:06;96821.38;;;11.75;63.13
66479;BME280;53294;47.912;13.526;2023-02-18T03:51:33;96818.31;;;11.82;62.74
66479;BME280;53294;47.912;13.526;2023-02-18T03:53:59;96807.63;;;11.77;62.89
66479;BME280;53294;47.912;13.526;2023-02-18T03:56:26;96815.47;;;11.73;63.15
66479;BME280;53294;47.912;13.526;2023-02-18T03:58:53;96815.75;;;11.72;62.99
66479;BME280;53294;47.912;13.526;2023-02-18T04:01:19;96813.56;;;11.74;63.25
66479;BME280;53294;47.912;13.526;2023-02-18T04:03:46;96806.94;;;11.66;63.25
66479;BME280;53294;47.912;13.526;2023-02-18T04:06:13;96807.97;;;11.70;63.36
66479;BME280;53294;47.912;13.526;2023-02-18T04:08:40;96807.72;;;11.66;63.15
66479;BME280;53294;47.912;13.526;2023-02-18T04:11:06;96810.69;;;11.65;63.33
66479;BME280;53294;47.912;13.526;2023-02-18T04:13:33;96807.16;;;11.70;63.12
66479;BME280;53294;47.912;13.526;2023-02-18T04:16:00;96806.38;;;11.69;63.03
66479;BME280;53294;47.912;13.526;2023-02-18T04:18:26;96795.13;;;11.62;63.22
66479;BME280;53294;47.912;13.526;2023-02-18T04:20:53;96803.97;;;11.67;63.10
66479;BME280;53294;47.912;13.526;2023-02-18T04:23:20;96807.69;;;11.72;63.06
66479;BME280;53294;47.912;13.526;2023-02-18T04:25:46;96823.38;;;11.64;63.42
66479;BME280;53294;47.912;13.526;2023-02-18T04:28:14;96822.28;;;11.65;63.67
66479;BME280;53294;47.912;13.526;2023-02-18T04:30:46;96806.72;;;11.62;63.26
66479;BME280;53294;47.912;13.526;2023-02-18T04:33:13;96808.84;;;11.65;63.32
66479;BME280;53294;47.912;13.526;2023-02-18T04:35:39;96817.91;;;11.70;63.20
66479;BME280;53294;47.912;13.526;2023-02-18T04:38:09;96821.47;;;11.65;63.37
66479;BME280;53294;47.912;13.526;2023-02-18T04:40:36;96821.72;;;11.68;63.31
66479;BME280;53294;47.912;13.526;2023-02-18T04:43:02;96826.13;;;11.59;63.34
66479;BME280;53294;47.912;13.526;2023-02-18T04:45:29;96805.47;;;11.55;63.63
66479;BME280;53294;47.912;13.526;2023-02-18T04:47:56;96812.66;;;11.59;63.57
66479;BME280;53294;47.912;13.526;2023-02-18T04:50:23;96802.97;;;11.58;63.78
66479;BME280;53294;47.912;13.526;2023-02-18T04:52:49;96811.63;;;11.55;63.97
66479;BME280;53294;47.912;13.526;2023-02-18T04:55:16;96818.84;;;11.60;63.66
66479;BME280;53294;47.912;13.526;2023-02-18T04:57:43;96815.59;;;11.63;63.40
66479;BME280;53294;47.912;13.526;2023-02-18T05:00:13;96815.66;;;11.58;63.71
66479;BME280;53294;47.912;13.526;2023-02-18T05:02:40;96817.00;;;11.55;63.75
66479;BME280;53294;47.912;13.526;2023-02-18T05:05:07;96804.63;;;11.54;63.58
66479;BME280;53294;47.912;13.526;2023-02-18T05:07:34;96817.47;;;11.62;63.28
66479;BME280;53294;47.912;13.526;2023-02-18T05:10:01;96815.41;;;11.54;63.50
66479;BME280;53294;47.912;13.526;2023-02-18T05:12:27;96815.34;;;11.59;63.31
66479;BME280;53294;47.912;13.526;2023-02-18T05:14:54;96825.84;;;11.61;63.41
66479;BME280;53294;47.912;13.526;2023-02-18T05:17:21;96813.56;;;11.49;63.85
66479;BME280;53294;47.912;13.526;2023-02-18T05:19:47;96818.91;;;11.55;63.63
66479;BME280;53294;47.912;13.526;2023-02-18T05:22:14;96811.63;;;11.55;63.57
66479;BME280;53294;47.912;13.526;2023-02-18T05:24:41;96813.81;;;11.53;63.77
66479;BME280;53294;47.912;13.526;2023-02-18T05:27:08;96815.97;;;11.51;63.87
66479;BME280;53294;47.912;13.526;2023-02-18T05:29:34;96828.19;;;11.67;63.35
66479;BME280;53294;47.912;13.526;2023-02-18T05:32:01;96818.84;;;11.60;63.56
66479;BME280;53294;47.912;13.526;2023-02-18T05:34:27;96797.78;;;11.43;63.98
66479;BME280;53294;47.912;13.526;2023-02-18T05:36:54;96820.06;;;11.43;64.23
66479;BME280;53294;47.912;13.526;2023-02-18T05:39:21;96820.91;;;11.44;64.10
66479;BME280;53294;47.912;13.526;2023-02-18T05:41:47;96825.16;;;11.50;63.97
66479;BME280;53294;47.912;13.526;2023-02-18T05:44:14;96818.25;;;11.39;64.27
66479;BME280;53294;47.912;13.526;2023-02-18T05:47:01;96822.25;;;11.41;64.11
66479;BME280;53294;47.912;13.526;2023-02-18T05:49:29;96824.16;;;11.41;64.24
66479;BME280;53294;47.912;13.526;2023-02-18T05:51:56;96819.91;;;11.35;64.40
66479;BME280;53294;47.912;13.526;2023-02-18T05:54:23;96831.31;;;11.26;64.82
66479;BME280;53294;47.912;13.526;2023-02-18T05:56:51;96824.59;;;11.24;64.88
66479;BME280;53294;47.912;13.526;2023-02-18T05:59:18;96818.09;;;11.30;64.70
66479;BME280;53294;47.912;13.526;2023-02-18T06:01:45;96826.22;;;11.25;64.66
66479;BME280;53294;47.912;13.526;2023-02-18T06:04:13;96821.91;;;11.24;64.70
66479;BME280;53294;47.912;13.526;2023-02-18T06:06:40;96832.94;;;11.22;65.01
66479;BME280;53294;47.912;13.526;2023-02-18T06:09:07;96827.63;;;11.17;64.90
66479;BME280;53294;47.912;13.526;2023-02-18T06:11:34;96822.75;;;11.19;64.74
66479;BME280;53294;47.912;13.526;2023-02-18T06:14:01;96831.94;;;11.13;64.95
66479;BME280;53294;47.912;13.526;2023-02-18T06:16:29;96843.75;;;11.17;65.00
66479;BME280;53294;47.912;13.526;2023-02-18T06:18:56;96844.22;;;11.24;64.41
66479;BME280;53294;47.912;13.526;2023-02-18T06:21:23;96852.56;;;11.23;64.62
66479;BME280;53294;47.912;13.526;2023-02-18T06:23:50;96846.94;;;11.19;64.75
66479;BME280;53294;47.912;13.526;2023-02-18T06:26:17;96859.56;;;11.24;64.65
66479;BME280;53294;47.912;13.526;2023-02-18T06:28:44;96858.22;;;11.21;64.69
66479;BME280;53294;47.912;13.526;2023-02-18T06:31:11;96854.81;;;11.10;65.11
66479;BME280;53294;47.912;13.526;2023-02-18T06:33:37;96859.78;;;11.27;64.47
66479;BME280;53294;47.912;13.526;2023-02-18T06:36:06;96849.50;;;11.35;64.00
66479;BME280;53294;47.912;13.526;2023-02-18T06:38:34;96852.69;;;11.37;64.16
66479;BME280;53294;47.912;13.526;2023-02-18T06:41:01;96853.22;;;11.39;64.19
66479;BME280;53294;47.912;13.526;2023-02-18T06:43:28;96851.84;;;11.41;63.97
66479;BME280;53294;47.912;13.526;2023-02-18T06:45:55;96859.69;;;11.38;64.19
66479;BME280;53294;47.912;13.526;2023-02-18T06:48:22;96856.19;;;11.08;65.22
66479;BME280;53294;47.912;13.526;2023-02-18T06:50:49;96849.72;;;11.09;65.00
66479;BME280;53294;47.912;13.526;2023-02-18T06:53:16;96855.63;;;11.11;65.14
66479;BME280;53294;47.912;13.526;2023-02-18T06:55:43;96850.72;;;11.18;64.57
66479;BME280;53294;47.912;13.526;2023-02-18T06:58:11;96846.94;;;11.19;64.74
66479;BME280;53294;47.912;13.526;2023-02-18T07:00:38;96861.00;;;11.11;64.97
66479;BME280;53294;47.912;13.526;2023-02-18T07:03:06;96857.75;;;11.14;64.45
66479;BME280;53294;47.912;13.526;2023-02-18T07:05:33;96853.47;;;11.13;64.96
66479;BME280;53294;47.912;13.526;2023-02-18T07:08:00;96851.53;;;11.19;64.79
66479;BME280;53294;47.912;13.526;2023-02-18T07:10:26;96845.81;;;11.25;64.51
66479;BME280;53294;47.912;13.526;2023-02-18T07:12:53;96850.06;;;11.31;63.97
66479;BME280;53294;47.912;13.526;2023-02-18T07:15:20;96848.13;;;11.37;64.05
66479;BME280;53294;47.912;13.526;2023-02-18T07:17:50;96860.47;;;11.38;64.03
66479;BME280;53294;47.912;13.526;2023-02-18T07:20:18;96847.81;;;11.39;63.95
66479;BME280;53294;47.912;13.526;2023-02-18T07:22:46;96856.16;;;11.42;64.11
66479;BME280;53294;47.912;13.526;2023-02-18T07:25:13;96856.94;;;11.43;64.18
66479;BME280;53294;47.912;13.526;2023-02-18T07:27:40;96847.09;;;11.33;64.41
66479;BME280;53294;47.912;13.526;2023-02-18T07:30:07;96848.44;;;11.30;64.43
66479;BME280;53294;47.912;13.526;2023-02-18T07:32:34;96849.50;;;11.35;64.58
66479;BME280;53294;47.912;13.526;2023-02-18T07:35:02;96845.63;;;11.46;63.94
66479;BME280;53294;47.912;13.526;2023-02-18T07:37:28;96853.78;;;11.36;64.50
66479;BME280;53294;47.912;13.526;2023-02-18T07:39:55;96841.47;;;11.29;64.49
66479;BME280;53294;47.912;13.526;2023-02-18T07:42:22;96842.63;;;11.23;64.77
66479;BME280;53294;47.912;13.526;2023-02-18T07:44:48;96845.47;;;11.32;64.63
66479;BME280;53294;47.912;13.526;2023-02-18T07:47:16;96840.63;;;11.34;64.46
66479;BME280;53294;47.912;13.526;2023-02-18T07:49:45;96842.50;;;11.34;64.60
66479;BME280;53294;47.912;13.526;2023-02-18T07:52:13;96846.03;;;11.29;64.64
66479;BME280;53294;47.912;13.526;2023-02-18T07:54:40;96845.75;;;11.30;64.28
66479;BME280;53294;47.912;13.526;2023-02-18T07:57:07;96840.66;;;11.29;64.48
66479;BME280;53294;47.912;13.526;2023-02-18T07:59:33;96850.22;;;11.45;63.98
66479;BME280;53294;47.912;13.526;2023-02-18T08:02:01;96848.44;;;11.30;63.96
66479;BME280;53294;47.912;13.526;2023-02-18T08:04:28;96845.25;;;11.28;64.21
66479;BME280;53294;47.912;13.526;2023-02-18T08:06:55;96862.41;;;11.32;63.90
66479;BME280;53294;47.912;13.526;2023-02-18T08:09:21;96855.97;;;11.34;64.27
66479;BME280;53294;47.912;13.526;2023-02-18T08:11:48;96861.84;;;11.36;64.04
66479;BME280;53294;47.912;13.526;2023-02-18T08:14:14;96857.16;;;11.46;63.67
66479;BME280;53294;47.912;13.526;2023-02-18T08:16:41;96855.31;;;11.47;63.73
66479;BME280;53294;47.912;13.526;2023-02-18T08:19:08;96850.44;;;11.49;63.66
66479;BME280;53294;47.912;13.526;2023-02-18T08:21:35;96852.66;;;11.42;63.63
66479;BME280;53294;47.912;13.526;2023-02-18T08:24:02;96856.00;;;11.58;63.63
66479;BME280;53294;47.912;13.526;2023-02-18T08:26:29;96839.75;;;11.39;63.90
66479;BME280;53294;47.912;13.526;2023-02-18T08:28:55;96849.03;;;11.27;64.29
66479;BME280;53294;47.912;13.526;2023-02-18T08:31:25;96844.91;;;11.35;64.04
66479;BME280;53294;47.912;13.526;2023-02-18T08:33:53;96833.88;;;11.37;63.77
66479;BME280;53294;47.912;13.526;2023-02-18T08:36:20;96860.63;;;11.52;63.83
66479;BME280;53294;47.912;13.526;2023-02-18T08:38:48;96838.38;;;11.71;63.04
66479;BME280;53294;47.912;13.526;2023-02-18T08:41:15;96833.66;;;12.06;62.66
66479;BME280;53294;47.912;13.526;2023-02-18T08:43:44;96844.25;;;12.21;61.90
66479;BME280;53294;47.912;13.526;2023-02-18T08:46:12;96841.72;;;12.30;61.36
66479;BME280;53294;47.912;13.526;2023-02-18T08:48:50;96828.53;;;12.28;61.34
66479;BME280;53294;47.912;13.526;2023-02-18T08:51:19;96831.06;;;12.19;61.35
66479;BME280;53294;47.912;13.526;2023-02-18T08:53:47;96830.56;;;12.17;61.09
66479;BME280;53294;47.912;13.526;2023-02-18T08:56:14;96828.66;;;12.18;61.25
66479;BME280;53294;47.912;13.526;2023-02-18T08:58:43;96832.03;;;11.85;61.33
66479;BME280;53294;47.912;13.526;2023-02-18T09:01:11;96843.13;;;11.79;62.04
66479;BME280;53294;47.912;13.526;2023-02-18T09:03:38;96834.06;;;11.70;62.44
66479;BME280;53294;47.912;13.526;2023-02-18T09:06:05;96837.28;;;11.72;62.40
66479;BME280;53294;47.912;13.526;2023-02-18T09:08:32;96840.97;;;11.81;62.31
66479;BME280;53294;47.912;13.526;2023-02-18T09:11:01;96838.69;;;11.88;62.56
66479;BME280;53294;47.912;13.526;2023-02-18T09:13:30;96831.84;;;11.77;62.58
66479;BME280;53294;47.912;13.526;2023-02-18T09:16:12;96838.09;;;11.72;62.67
66479;BME280;53294;47.912;13.526;2023-02-18T09:18:40;96830.81;;;11.73;62.67
66479;BME280;53294;47.912;13.526;2023-02-18T09:21:07;96817.81;;;11.80;62.67
66479;BME280;53294;47.912;13.526;2023-02-18T09:23:35;96819.56;;;11.95;62.31
66479;BME280;53294;47.912;13.526;2023-02-18T09:26:07;96820.19;;;12.06;61.94
66479;BME280;53294;47.912;13.526;2023-02-18T09:28:35;96815.06;;;12.09;61.72
66479;BME280;53294;47.912;13.526;2023-02-18T09:33:39;96811.94;;;12.21;61.34
66479;BME280;53294;47.912;13.526;2023-02-18T09:36:07;96809.22;;;12.21;61.50
66479;BME280;53294;47.912;13.526;2023-02-18T09:38:34;96803.22;;;12.29;61.01
66479;BME280;53294;47.912;13.526;2023-02-18T09:41:04;96807.94;;;12.37;60.83
66479;BME280;53294;47.912;13.526;2023-02-18T09:43:41;96789.66;;;12.34;61.36
66479;BME280;53294;47.912;13.526;2023-02-18T09:46:55;96782.66;;;12.71;60.52
66479;BME280;53294;47.912;13.526;2023-02-18T09:49:27;96785.50;;;12.94;59.96
66479;BME280;53294;47.912;13.526;2023-02-18T09:51:55;96773.19;;;13.21;58.82
66479;BME280;53294;47.912;13.526;2023-02-18T09:54:22;96769.53;;;13.58;57.96
66479;BME280;53294;47.912;13.526;2023-02-18T09:56:50;96772.00;;;13.96;56.83
66479;BME280;53294;47.912;13.526;2023-02-18T09:59:20;96762.63;;;13.94;56.05
66479;BME280;53294;47.912;13.526;2023-02-18T10:01:50;96755.09;;;14.41;55.06
66479;BME280;53294;47.912;13.526;2023-02-18T10:04:26;96759.13;;;14.30;54.62
66479;BME280;53294;47.912;13.526;2023-02-18T10:06:53;96753.91;;;14.33;55.60
66479;BME280;53294;47.912;13.526;2023-02-18T10:09:40;96745.00;;;14.55;55.01
66479;BME280;53294;47.912;13.526;2023-02-18T10:12:19;96751.03;;;14.52;54.30
66479;BME280;53294;47.912;13.526;2023-02-18T10:14:53;96739.50;;;14.83;52.88
66479;BME280;53294;47.912;13.526;2023-02-18T10:17:22;96735.63;;;14.98;53.22
66479;BME280;53294;47.912;13.526;2023-02-18T10:19:51;96729.34;;;15.20;52.02
66479;BME280;53294;47.912;13.526;2023-02-18T10:22:19;96727.84;;;15.37;51.60
66479;BME280;53294;47.912;13.526;2023-02-18T10:25:00;96731.97;;;15.34;51.58
66479;BME280;53294;47.912;13.526;2023-02-18T10:27:30;96716.84;;;15.82;50.25
66479;BME280;53294;47.912;13.526;2023-02-18T10:30:20;96714.94;;;15.83;49.59
66479;BME280;53294;47.912;13.526;2023-02-18T10:32:47;96708.25;;;15.80;50.47
66479;BME280;53294;47.912;13.526;2023-02-18T10:43:28;96675.06;;;16.71;48.13
66479;BME280;53294;47.912;13.526;2023-02-18T10:46:10;96695.13;;;16.87;48.18
66479;BME280;53294;47.912;13.526;2023-02-18T10:51:46;96673.19;;;17.10;47.60
66479;BME280;53294;47.912;13.526;2023-02-18T10:54:14;96668.00;;;17.55;46.69
66479;BME280;53294;47.912;13.526;2023-02-18T10:56:48;96658.78;;;17.77;45.77
66479;BME280;53294;47.912;13.526;2023-02-18T10:59:21;96649.50;;;18.21;45.30
66479;BME280;53294;47.912;13.526;2023-02-18T11:01:53;96629.75;;;18.33;43.92
66479;BME280;53294;47.912;13.526;2023-02-18T11:04:26;96646.38;;;18.31;44.81
66479;BME280;53294;47.912;13.526;2023-02-18T11:06:53;96637.97;;;18.24;45.03
66479;BME280;53294;47.912;13.526;2023-02-18T11:09:27;96630.03;;;18.19;43.59
66479;BME280;53294;47.912;13.526;2023-02-18T11:12:00;96621.41;;;18.50;44.36
66479;BME280;53294;47.912;13.526;2023-02-18T11:14:39;96601.63;;;18.62;43.00
66479;BME280;53294;47.912;13.526;2023-02-18T11:17:20;96600.03;;;18.73;42.77
66479;BME280;53294;47.912;13.526;2023-02-18T11:19:55;96594.22;;;18.96;41.81
66479;BME280;53294;47.912;13.526;2023-02-18T11:22:34;96583.25;;;18.59;42.52
66479;BME280;53294;47.912;13.526;2023-02-18T11:25:17;96578.91;;;18.45;42.07
66479;BME280;53294;47.912;13.526;2023-02-18T11:27:47;96576.28;;;18.37;43.07
66479;BME280;53294;47.912;13.526;2023-02-18T11:30:21;96567.16;;;18.54;43.14
66479;BME280;53294;47.912;13.526;2023-02-18T11:32:52;96578.59;;;18.72;42.43
66479;BME280;53294;47.912;13.526;2023-02-18T11:35:24;96569.38;;;18.39;42.91
66479;BME280;53294;47.912;13.526;2023-02-18T11:37:53;96563.53;;;18.16;43.16
66479;BME280;53294;47.912;13.526;2023-02-18T11:40:25;96564.06;;;18.09;43.57
66479;BME280;53294;47.912;13.526;2023-02-18T11:43:12;96550.78;;;18.29;42.91
66479;BME280;53294;47.912;13.526;2023-02-18T11:45:40;96548.91;;;17.87;43.56
66479;BME280;53294;47.912;13.526;2023-02-18T11:48:16;96544.34;;;18.00;43.12
66479;BME280;53294;47.912;13.526;2023-02-18T11:50:44;96535.94;;;17.51;44.30
66479;BME280;53294;47.912;13.526;2023-02-18T11:53:31;96531.75;;;17.32;45.39
66479;BME280;53294;47.912;13.526;2023-02-18T11:56:00;96521.38;;;17.34;44.77
66479;BME280;53294;47.912;13.526;2023-02-18T11:58:35;96529.59;;;17.47;45.68
66479;BME280;53294;47.912;13.526;2023-02-18T12:01:04;96522.59;;;18.00;43.69
66479;BME280;53294;47.912;13.526;2023-02-18T12:03:47;96517.94;;;17.67;44.71
66479;BME280;53294;47.912;13.526;2023-02-18T12:06:23;96514.72;;;18.07;44.40
66479;BME280;53294;47.912;13.526;2023-02-18T12:09:05;96514.25;;;17.84;44.14
66479;BME280;53294;47.912;13.526;2023-02-18T12:11:37;96506.91;;;17.85;43.27
66479;BME280;53294;47.912;13.526;2023-02-18T12:14:18;96501.13;;;17.53;44.20
66479;BME280;53294;47.912;13.526;2023-02-18T12:17:16;96482.72;;;17.92;43.25
66479;BME280;53294;47.912;13.526;2023-02-18T12:22:30;96466.69;;;17.99;42.53
66479;BME280;53294;47.912;13.526;2023-02-18T12:33:44;96446.56;;;18.50;41.62
66479;BME280;53294;47.912;13.526;2023-02-18T12:49:41;96402.69;;;20.17;38.61
66479;BME280;53294;47.912;13.526;2023-02-18T12:57:47;96382.09;;;21.07;37.86
66479;BME280;53294;47.912;13.526;2023-02-18T13:06:27;96376.78;;;21.53;35.52
66479;BME280;53294;47.912;13.526;2023-02-18T13:11:49;96372.75;;;21.27;36.10
66479;BME280;53294;47.912;13.526;2023-02-18T13:17:26;96356.81;;;21.95;35.25
66479;BME280;53294;47.912;13.526;2023-02-18T13:19:58;96355.06;;;22.07;35.10
66479;BME280;53294;47.912;13.526;2023-02-18T13:22:28;96355.72;;;21.54;36.03
66479;BME280;53294;47.912;13.526;2023-02-18T13:24:57;96348.88;;;21.86;35.48
66479;BME280;53294;47.912;13.526;2023-02-18T13:27:39;96349.09;;;22.01;34.73
66479;BME280;53294;47.912;13.526;2023-02-18T13:32:57;96350.81;;;21.24;35.51
66479;BME280;53294;47.912;13.526;2023-02-18T13:35:36;96347.00;;;21.28;34.54
66479;BME280;53294;47.912;13.526;2023-02-18T13:38:46;96351.75;;;20.73;36.65
66479;BME280;53294;47.912;13.526;2023-02-18T13:41:18;96353.78;;;20.95;35.95
66479;BME280;53294;47.912;13.526;2023-02-18T13:43:45;96347.31;;;21.04;35.46
66479;BME280;53294;47.912;13.526;2023-02-18T13:46:20;96341.50;;;21.05;35.23
66479;BME280;53294;47.912;13.526;2023-02-18T13:51:30;96339.47;;;20.47;36.08
66479;BME280;53294;47.912;13.526;2023-02-18T13:56:49;96331.81;;;20.53;36.15
66479;BME280;53294;47.912;13.526;2023-02-18T13:59:27;96322.53;;;20.57;36.61
66479;BME280;53294;47.912;13.526;2023-02-18T14:02:28;96321.75;;;20.21;36.09
66479;BME280;53294;47.912;13.526;2023-02-18T14:09:58;96314.38;;;19.90;37.58
66479;BME280;53294;47.912;13.526;2023-02-18T14:14:52;96306.78;;;20.31;37.08
66479;BME280;53294;47.912;13.526;2023-02-18T14:22:45;96315.13;;;19.59;37.47
66479;BME280;53294;47.912;13.526;2023-02-18T14:25:54;96321.88;;;19.77;37.90
66479;BME280;53294;47.912;13.526;2023-02-18T14:33:43;96310.59;;;20.46;37.84
66479;BME280;53294;47.912;13.526;2023-02-18T14:44:26;96310.53;;;20.78;36.82
66479;BME280;53294;47.912;13.526;2023-02-18T14:49:39;96318.41;;;20.48;37.22
66479;BME280;53294;47.912;13.526;2023-02-18T14:54:44;96330.38;;;20.94;36.52
66479;BME280;53294;47.912;13.526;2023-02-18T14:57:16;96326.59;;;20.63;36.66
66479;BME280;53294;47.912;13.526;2023-02-18T14:59:45;96323.75;;;20.40;38.41
66479;BME280;53294;47.912;13.526;2023-02-18T15:02:23;96325.22;;;20.38;37.23
66479;BME280;53294;47.912;13.526;2023-02-18T15:04:53;96327.25;;;20.41;37.19
66479;BME280;53294;47.912;13.526;2023-02-18T15:07:20;96328.16;;;20.29;37.11
66479;BME280;53294;47.912;13.526;2023-02-18T15:09:54;96336.16;;;20.22;37.64
66479;BME280;53294;47.912;13.526;2023-02-18T15:12:22;96339.53;;;19.83;38.42
66479;BME280;53294;47.912;13.526;2023-02-18T15:14:52;96341.19;;;19.72;38.67
66479;BME280;53294;47.912;13.526;2023-02-18T15:17:22;96345.47;;;19.73;38.20